KDFI/DFI METAR and TAF weather

Enter ICAO airport designator
Station Type Date Time Source
KDFI METAR 2019/11/18 08:53 UTC NOAA

KDFI 180853Z AUTO 00000KT 7SM CLR 00/M02 A2980 RMK AO2 SLP097 T00001022 56016


Station Type Date Time Source
KDFI Decoded METAR 2019/11/18 08:53 UTC NOAA

DEFIANCE MEMORIAL AIRPORT, OH, United States (KDFI) 41-20N 84-26W 219M
Nov 18, 2019 - 03:53 AM EST / 2019.11.18 0853 UTC
Wind: Calm:0
Visibility: 7 mile(s):0
Sky conditions: clear
Temperature: 32.0 F (0.0 C)
Dew Point: 28.0 F (-2.2 C)
Relative Humidity: 85%
Pressure (altimeter): 29.8 in. Hg (1009 hPa)
Pressure tendency: 0.05 inches (1.6 hPa) lower than three hours ago
ob: KDFI 180853Z AUTO 00000KT 7SM CLR 00/M02 A2980 RMK AO2 SLP097 T00001022 56016
cycle: 9

Station Type Date Time Source
KDFI TAF UTC NOAA

Error!

Example: see airport list